createdAt,value
2022-11-28T00:02:05.814Z,26.45
2022-11-28T00:04:32.820Z,20.45
2022-11-28T00:07:00.089Z,27.92
2022-11-28T00:09:27.266Z,29.10
2022-11-28T00:11:54.393Z,30.55
2022-11-28T00:14:21.642Z,21.35
2022-11-28T00:16:48.938Z,23.02
2022-11-28T00:19:16.300Z,24.92
2022-11-28T00:21:43.431Z,26.57
2022-11-28T00:24:12.473Z,21.17
2022-11-28T00:26:41.813Z,17.48
2022-11-28T00:29:11.775Z,15.25
2022-11-28T00:31:42.944Z,14.15
2022-11-28T00:34:13.627Z,11.53
2022-11-28T00:36:41.254Z,13.38
2022-11-28T00:39:08.491Z,12.55
2022-11-28T00:41:35.618Z,12.73
2022-11-28T00:44:02.859Z,15.68
2022-11-28T00:46:30.547Z,13.87
2022-11-28T00:48:58.632Z,15.50
2022-11-28T00:51:28.832Z,12.13
2022-11-28T00:53:58.611Z,12.38
2022-11-28T00:56:28.209Z,12.32
2022-11-28T00:58:56.346Z,16.63
2022-11-28T01:01:25.305Z,16.98
2022-11-28T01:03:54.477Z,14.48
2022-11-28T01:06:43.793Z,14.57
2022-11-28T01:09:14.098Z,15.40
2022-11-28T01:11:42.465Z,13.03
2022-11-28T01:14:10.640Z,10.27
2022-11-28T01:16:37.947Z,12.32
2022-11-28T01:19:05.932Z,11.50
2022-11-28T01:21:33.057Z,13.77
2022-11-28T01:24:00.242Z,11.60
2022-11-28T01:26:29.558Z,11.93
2022-11-28T01:28:57.399Z,11.05
2022-11-28T01:31:26.677Z,13.98
2022-11-28T01:33:54.365Z,13.70
2022-11-28T01:36:22.158Z,15.63
2022-11-28T01:38:50.170Z,18.15
2022-11-28T01:41:24.639Z,16.92
2022-11-28T01:44:29.378Z,16.65
2022-11-28T01:46:56.748Z,17.40
2022-11-28T01:49:36.931Z,16.97
2022-11-28T01:52:10.336Z,19.85
2022-11-28T01:54:38.636Z,20.38
2022-11-28T01:57:11.295Z,20.00
2022-11-28T01:59:44.494Z,20.20
2022-11-28T02:02:20.187Z,21.40
2022-11-28T02:04:48.908Z,21.95
2022-11-28T02:07:16.066Z,20.30
2022-11-28T02:09:43.091Z,21.73
2022-11-28T02:12:51.525Z,18.13
2022-11-28T02:15:44.291Z,14.93
2022-11-28T02:18:29.608Z,15.80
2022-11-28T02:21:05.601Z,16.52
2022-11-28T02:24:20.795Z,11.35
2022-11-28T02:26:50.803Z,13.05
2022-11-28T02:29:34.447Z,12.80
2022-11-28T02:32:21.028Z,13.05
2022-11-28T02:35:05.214Z,13.88
2022-11-28T02:37:35.100Z,15.27
2022-11-28T02:40:27.868Z,14.00
2022-11-28T02:43:36.600Z,18.17
2022-11-28T02:46:18.817Z,16.88
2022-11-28T02:49:12.062Z,16.38
2022-11-28T02:51:47.116Z,17.58
2022-11-28T02:54:17.642Z,21.13
2022-11-28T02:56:49.449Z,20.17
2022-11-28T02:59:46.662Z,17.10
2022-11-28T03:02:27.703Z,17.83
2022-11-28T03:05:24.857Z,17.85
2022-11-28T03:07:51.911Z,20.65
2022-11-28T03:10:30.541Z,14.60
2022-11-28T03:13:19.166Z,16.95
2022-11-28T03:16:14.269Z,17.63
2022-11-28T03:19:03.195Z,12.70
2022-11-28T03:21:30.203Z,17.33
2022-11-28T03:24:06.578Z,17.10
2022-11-28T03:26:58.065Z,18.40
2022-11-28T03:29:54.204Z,22.55
2022-11-28T03:32:30.600Z,19.05
2022-11-28T03:35:05.197Z,20.83
2022-11-28T03:37:40.144Z,19.93
2022-11-28T03:40:14.268Z,19.08
2022-11-28T03:42:50.928Z,14.43
2022-11-28T03:45:25.752Z,18.27
2022-11-28T03:48:03.735Z,17.13
2022-11-28T03:50:45.984Z,25.07
2022-11-28T03:53:23.969Z,22.50
2022-11-28T03:56:00.274Z,19.63
2022-11-28T03:58:50.144Z,22.35
2022-11-28T04:01:25.559Z,22.35
2022-11-28T04:04:02.550Z,21.73
2022-11-28T04:06:47.862Z,21.45
2022-11-28T04:09:20.219Z,20.70
2022-11-28T04:11:56.782Z,19.70
2022-11-28T04:14:26.729Z,17.55
2022-11-28T04:17:25.258Z,20.03
2022-11-28T04:19:58.194Z,21.25
2022-11-28T04:22:31.143Z,21.48
2022-11-28T04:25:04.061Z,26.23
2022-11-28T04:27:38.372Z,24.67
2022-11-28T04:30:08.056Z,21.50
2022-11-28T04:32:40.723Z,25.50
2022-11-28T04:35:12.890Z,16.75
2022-11-28T04:37:44.550Z,25.90
2022-11-28T04:40:13.143Z,13.48
2022-11-28T04:43:04.370Z,20.20
2022-11-28T04:45:33.991Z,22.67
2022-11-28T04:48:01.956Z,20.00
2022-11-28T04:50:38.005Z,14.00
2022-11-28T04:53:19.111Z,17.83
2022-11-28T04:56:02.687Z,17.10
2022-11-28T04:58:40.600Z,12.32
2022-11-28T05:01:11.857Z,19.10
2022-11-28T05:03:42.537Z,17.17
2022-11-28T05:06:10.295Z,21.45
2022-11-28T05:08:37.318Z,20.77
2022-11-28T05:11:04.505Z,15.95
2022-11-28T05:13:31.446Z,19.50
2022-11-28T05:16:01.348Z,19.83
2022-11-28T05:18:28.500Z,14.07
2022-11-28T05:20:55.502Z,19.67
2022-11-28T05:23:22.375Z,18.13
2022-11-28T05:25:50.123Z,17.02
2022-11-28T05:28:17.129Z,15.73
2022-11-28T05:30:44.289Z,15.48
2022-11-28T05:33:11.771Z,18.00
2022-11-28T05:35:43.319Z,21.02
2022-11-28T05:38:13.549Z,18.65
2022-11-28T05:40:44.315Z,18.55
2022-11-28T05:43:11.912Z,14.40
2022-11-28T05:45:45.801Z,23.97
2022-11-28T05:48:12.956Z,20.75
2022-11-28T05:50:41.484Z,21.48
2022-11-28T05:53:08.886Z,22.33
2022-11-28T05:55:37.896Z,19.23
2022-11-28T05:58:05.046Z,19.23
2022-11-28T06:00:32.575Z,12.63
2022-11-28T06:03:01.763Z,11.70
2022-11-28T06:05:42.364Z,17.42
2022-11-28T06:08:14.036Z,12.43
2022-11-28T06:10:41.350Z,22.13
2022-11-28T06:13:08.883Z,16.60
2022-11-28T06:15:38.262Z,17.52
2022-11-28T06:18:09.567Z,18.33
2022-11-28T06:20:36.821Z,19.88
2022-11-28T06:23:03.833Z,12.80
2022-11-28T06:25:30.728Z,18.23
2022-11-28T06:27:57.845Z,11.10
2022-11-28T06:30:25.243Z,18.90
2022-11-28T06:32:52.364Z,11.70
2022-11-28T06:35:19.369Z,12.67
2022-11-28T06:37:46.427Z,8.02
2022-11-28T06:40:13.894Z,9.80
2022-11-28T06:42:40.999Z,13.02
2022-11-28T06:45:09.533Z,11.73
2022-11-28T06:47:36.631Z,14.57
2022-11-28T06:50:04.401Z,15.85
2022-11-28T06:52:31.519Z,16.10
2022-11-28T06:54:58.571Z,15.40
2022-11-28T06:57:25.891Z,18.75
2022-11-28T06:59:52.787Z,12.53
2022-11-28T07:02:19.918Z,17.50
2022-11-28T07:04:47.096Z,15.75
2022-11-28T07:07:16.683Z,15.23
2022-11-28T07:09:46.204Z,16.55
2022-11-28T07:12:16.189Z,14.83
2022-11-28T07:14:43.326Z,17.63
2022-11-28T07:17:10.495Z,17.67
2022-11-28T07:19:38.528Z,13.82
2022-11-28T07:22:06.891Z,21.58
2022-11-28T07:24:38.498Z,15.93
2022-11-28T07:27:09.197Z,17.83
2022-11-28T07:29:39.547Z,19.65
2022-11-28T07:32:09.464Z,21.70
2022-11-28T07:34:36.644Z,17.60
2022-11-28T07:37:21.131Z,14.40
2022-11-28T07:39:50.088Z,18.63
2022-11-28T07:42:17.128Z,17.05
2022-11-28T07:44:55.656Z,15.20
2022-11-28T07:47:25.350Z,18.70
2022-11-28T07:49:52.645Z,21.63
2022-11-28T07:52:20.578Z,15.77
2022-11-28T07:54:49.785Z,14.98
2022-11-28T07:57:19.022Z,17.17
2022-11-28T07:59:48.342Z,18.20
2022-11-28T08:02:15.939Z,15.27
2022-11-28T08:04:48.616Z,18.10
2022-11-28T08:07:22.883Z,19.08
2022-11-28T08:09:52.957Z,20.20
2022-11-28T08:12:20.661Z,21.55
2022-11-28T08:14:47.678Z,16.77
2022-11-28T08:17:15.088Z,17.95
2022-11-28T08:19:44.697Z,18.35
2022-11-28T08:22:11.891Z,17.90
2022-11-28T08:24:39.412Z,22.10
2022-11-28T08:27:09.834Z,21.67
2022-11-28T08:29:37.087Z,16.05
2022-11-28T08:32:04.323Z,17.42
2022-11-28T08:34:31.455Z,17.15
2022-11-28T08:36:58.493Z,16.50
2022-11-28T08:39:25.805Z,17.93
2022-11-28T08:42:00.210Z,23.42
2022-11-28T08:44:32.274Z,13.32
2022-11-28T08:46:59.379Z,17.52
2022-11-28T08:49:26.380Z,16.10
2022-11-28T08:51:53.479Z,16.90
2022-11-28T08:54:21.296Z,17.40
2022-11-28T08:56:50.116Z,15.07
2022-11-28T08:59:17.294Z,19.02
2022-11-28T09:01:44.588Z,20.42
2022-11-28T09:04:11.778Z,15.63
2022-11-28T09:06:40.349Z,17.25
2022-11-28T09:09:10.996Z,18.77
2022-11-28T09:11:41.363Z,14.60
2022-11-28T09:14:14.616Z,16.00
2022-11-28T09:16:43.213Z,15.87
2022-11-28T09:19:11.188Z,14.48
2022-11-28T09:21:40.200Z,16.85
2022-11-28T09:24:08.058Z,17.23
2022-11-28T09:26:37.745Z,14.13
2022-11-28T09:29:04.852Z,20.17
2022-11-28T09:31:34.801Z,19.40
2022-11-28T09:34:03.574Z,20.50
2022-11-28T09:36:35.543Z,22.05
2022-11-28T09:39:02.759Z,16.42
2022-11-28T09:41:36.032Z,12.50
2022-11-28T09:44:12.258Z,16.48
2022-11-28T09:46:46.466Z,17.38
2022-11-28T09:49:38.577Z,16.77
2022-11-28T09:52:33.978Z,15.75
2022-11-28T09:55:43.776Z,14.37
2022-11-28T09:58:46.679Z,17.85
2022-11-28T10:01:40.851Z,10.18
2022-11-28T10:04:26.291Z,9.55
2022-11-28T10:07:10.261Z,19.67
2022-11-28T10:09:49.609Z,12.93
2022-11-28T10:12:27.693Z,13.88
2022-11-28T10:15:02.744Z,14.38
2022-11-28T10:17:34.857Z,11.57
2022-11-28T10:20:28.989Z,11.02
2022-11-28T10:23:01.211Z,10.23
2022-11-28T10:25:42.787Z,9.38
2022-11-28T10:28:17.776Z,13.10
2022-11-28T10:31:17.230Z,9.77
2022-11-28T10:33:54.651Z,12.18
2022-11-28T10:36:27.606Z,10.37
2022-11-28T10:38:57.100Z,9.75
2022-11-28T10:41:45.522Z,8.32
2022-11-28T10:44:36.149Z,9.57
2022-11-28T10:47:08.075Z,10.30
2022-11-28T10:49:35.145Z,10.03
2022-11-28T10:52:29.066Z,14.32
2022-11-28T10:55:08.175Z,12.98
2022-11-28T10:57:59.982Z,12.48
2022-11-28T11:00:29.971Z,12.88
2022-11-28T11:03:00.936Z,11.97
2022-11-28T11:05:27.878Z,11.38
2022-11-28T11:08:05.322Z,12.52
2022-11-28T11:10:47.038Z,12.48
2022-11-28T11:13:19.637Z,11.68
2022-11-28T11:15:50.211Z,10.50
2022-11-28T11:18:29.854Z,9.93
2022-11-28T11:21:16.329Z,10.48
2022-11-28T11:23:44.865Z,7.68
2022-11-28T11:26:43.787Z,7.20
2022-11-28T11:29:35.712Z,9.10
2022-11-28T11:32:06.427Z,7.53
2022-11-28T11:34:42.923Z,8.95
2022-11-28T11:37:36.139Z,8.13
2022-11-28T11:40:24.602Z,6.97
2022-11-28T11:43:01.557Z,7.67
2022-11-28T11:45:36.026Z,9.38
2022-11-28T11:48:09.199Z,9.77
2022-11-28T11:50:39.910Z,11.73
2022-11-28T11:53:15.070Z,13.63
2022-11-28T11:56:05.243Z,10.03
2022-11-28T11:58:45.354Z,12.25
2022-11-28T12:01:17.290Z,10.15
2022-11-28T12:04:08.464Z,12.48
2022-11-28T12:06:52.158Z,11.50
2022-11-28T12:09:28.689Z,9.93
2022-11-28T12:12:04.338Z,11.63
2022-11-28T12:14:36.833Z,11.50
2022-11-28T12:20:41.156Z,13.25
2022-11-28T12:23:29.964Z,11.07
2022-11-28T12:26:05.723Z,13.15
2022-11-28T12:28:54.220Z,10.68
2022-11-28T12:32:01.283Z,20.00
2022-11-28T12:34:38.290Z,14.50
2022-11-28T12:37:08.161Z,14.63
2022-11-28T12:39:51.316Z,15.07
2022-11-28T12:42:48.130Z,14.75
2022-11-28T12:45:33.034Z,13.45
2022-11-28T12:48:02.061Z,12.18
2022-11-28T12:50:34.113Z,16.70
2022-11-28T12:53:26.585Z,11.80
2022-11-28T12:56:02.668Z,14.77
2022-11-28T12:58:37.233Z,13.93
2022-11-28T13:01:27.261Z,15.45
2022-11-28T13:04:23.055Z,12.67
2022-11-28T13:07:00.998Z,13.40
2022-11-28T13:09:38.835Z,13.75
2022-11-28T13:12:22.099Z,13.63
2022-11-28T13:14:56.526Z,16.30
2022-11-28T13:17:58.277Z,14.93
2022-11-28T13:20:34.321Z,13.18
2022-11-28T13:23:22.804Z,10.77
2022-11-28T13:26:02.179Z,13.55
2022-11-28T13:28:46.911Z,11.85
2022-11-28T13:31:33.718Z,15.40
2022-11-28T13:34:01.369Z,15.38
2022-11-28T13:39:40.348Z,10.27
2022-11-28T13:42:44.324Z,19.30
2022-11-28T13:45:31.509Z,11.60
2022-11-28T13:51:30.209Z,9.82
2022-11-28T13:54:20.064Z,10.23
2022-11-28T13:57:06.243Z,9.13
2022-11-28T13:59:37.088Z,7.47
2022-11-28T14:06:34.163Z,10.13
2022-11-28T14:09:47.677Z,11.95
2022-11-28T14:12:47.656Z,9.90
2022-11-28T14:15:30.763Z,13.27
2022-11-28T14:18:55.711Z,11.68
2022-11-28T14:21:41.639Z,9.98
2022-11-28T14:24:39.509Z,10.20
2022-11-28T14:27:07.853Z,13.65
2022-11-28T14:29:38.721Z,11.47
2022-11-28T14:32:30.313Z,18.08
2022-11-28T14:34:55.145Z,11.52
2022-11-28T14:37:26.463Z,11.13
2022-11-28T14:40:47.353Z,10.13
2022-11-28T14:43:42.735Z,10.87
2022-11-28T14:46:28.950Z,9.20
2022-11-28T14:48:59.985Z,8.57
2022-11-28T14:51:45.785Z,10.00
2022-11-28T14:54:47.748Z,6.65
2022-11-28T14:57:17.946Z,7.37
2022-11-28T14:59:50.261Z,8.13
2022-11-28T15:02:46.570Z,10.23
2022-11-28T15:05:26.416Z,12.40
2022-11-28T15:08:01.726Z,11.60
2022-11-28T15:10:44.931Z,11.80
2022-11-28T15:13:22.113Z,12.32
2022-11-28T15:15:52.791Z,12.18
2022-11-28T15:18:22.624Z,14.98
2022-11-28T15:20:58.777Z,20.20
2022-11-28T15:23:30.343Z,12.30
2022-11-28T15:25:59.189Z,14.68
2022-11-28T15:28:29.253Z,12.60
2022-11-28T15:30:59.350Z,14.38
2022-11-28T15:33:29.881Z,15.00
2022-11-28T15:36:10.618Z,17.83
2022-11-28T15:38:41.641Z,15.93
2022-11-28T15:41:12.450Z,12.25
2022-11-28T15:43:45.731Z,15.13
2022-11-28T15:46:22.966Z,12.40
2022-11-28T15:48:53.666Z,13.07
2022-11-28T15:51:29.268Z,12.98
2022-11-28T15:53:57.522Z,10.20
2022-11-28T15:56:24.522Z,11.70
2022-11-28T15:58:52.779Z,15.93
2022-11-28T16:01:21.633Z,13.90
2022-11-28T16:04:04.078Z,14.50
2022-11-28T16:06:34.722Z,9.77
2022-11-28T16:09:06.582Z,11.82
2022-11-28T16:11:36.660Z,11.43
2022-11-28T16:14:09.844Z,15.53
2022-11-28T16:16:39.180Z,12.95
2022-11-28T16:19:09.070Z,13.30
2022-11-28T16:21:50.993Z,14.27
2022-11-28T16:24:46.627Z,9.30
2022-11-28T16:27:29.481Z,9.17
2022-11-28T16:29:57.468Z,11.07
2022-11-28T16:32:36.838Z,10.23
2022-11-28T16:35:06.013Z,13.27
2022-11-28T16:37:35.141Z,11.45
2022-11-28T16:40:22.082Z,10.00
2022-11-28T16:42:53.772Z,8.48
2022-11-28T16:45:31.054Z,13.30
2022-11-28T16:48:17.589Z,10.18
2022-11-28T16:51:03.001Z,8.70
2022-11-28T16:53:48.433Z,9.00
2022-11-28T16:56:33.964Z,9.70
2022-11-28T16:59:10.187Z,10.70
2022-11-28T17:01:38.135Z,11.60
2022-11-28T17:04:07.567Z,9.85
2022-11-28T17:06:39.172Z,12.50
2022-11-28T17:09:10.866Z,13.15
2022-11-28T17:11:45.714Z,12.00
2022-11-28T17:14:14.131Z,8.40
2022-11-28T17:16:42.323Z,10.07
2022-11-28T17:19:09.498Z,11.57
2022-11-28T17:21:45.330Z,10.68
2022-11-28T17:24:23.064Z,11.73
2022-11-28T17:26:51.414Z,9.77
2022-11-28T17:29:18.969Z,11.40
2022-11-28T17:31:47.374Z,10.87
2022-11-28T17:34:17.368Z,10.50
2022-11-28T17:36:45.173Z,15.07
2022-11-28T17:39:12.674Z,12.43
2022-11-28T17:41:40.949Z,11.10
2022-11-28T17:44:16.189Z,13.97
2022-11-28T17:46:43.244Z,12.27
2022-11-28T17:49:10.455Z,12.95
2022-11-28T17:51:38.780Z,10.68
2022-11-28T17:54:06.176Z,16.02
2022-11-28T17:56:33.657Z,12.47
2022-11-28T17:59:01.141Z,10.00
2022-11-28T18:01:31.193Z,9.68
2022-11-28T18:03:59.397Z,9.98
2022-11-28T18:06:26.740Z,7.90
2022-11-28T18:08:53.853Z,11.73
2022-11-28T18:11:21.635Z,11.18
2022-11-28T18:13:48.829Z,8.93
2022-11-28T18:16:18.776Z,9.10
2022-11-28T18:18:46.469Z,11.18
2022-11-28T18:21:14.108Z,11.20
2022-11-28T18:23:42.475Z,10.48
2022-11-28T18:26:15.735Z,10.13
2022-11-28T18:28:42.926Z,13.25
2022-11-28T18:31:31.679Z,10.52
2022-11-28T18:34:07.886Z,13.50
2022-11-28T18:36:37.314Z,14.43
2022-11-28T18:39:09.114Z,12.18
2022-11-28T18:41:37.335Z,13.10
2022-11-28T18:44:05.220Z,15.65
2022-11-28T18:46:33.605Z,17.97
2022-11-28T18:49:01.742Z,15.80
2022-11-28T18:51:32.184Z,15.43
2022-11-28T18:53:59.936Z,14.65
2022-11-28T18:56:36.426Z,16.13
2022-11-28T18:59:04.491Z,12.13
2022-11-28T19:01:42.238Z,13.88
2022-11-28T19:04:15.587Z,15.45
2022-11-28T19:06:44.828Z,16.92
2022-11-28T19:09:14.588Z,15.40
2022-11-28T19:11:42.841Z,13.77
2022-11-28T19:14:15.882Z,16.92
2022-11-28T19:16:45.286Z,16.23
2022-11-28T19:19:18.600Z,18.67
2022-11-28T19:21:51.569Z,14.80
2022-11-28T19:24:18.947Z,16.40
2022-11-28T19:26:46.438Z,11.77
2022-11-28T19:29:14.468Z,17.88
2022-11-28T19:31:45.609Z,14.98
2022-11-28T19:34:16.025Z,18.45
2022-11-28T19:36:47.899Z,15.00
2022-11-28T19:39:18.773Z,13.48
2022-11-28T19:41:47.529Z,14.70
2022-11-28T19:44:15.760Z,12.77
2022-11-28T19:46:48.455Z,16.73
2022-11-28T19:49:20.730Z,12.77
2022-11-28T19:51:49.654Z,13.98
2022-11-28T19:54:21.387Z,10.35
2022-11-28T19:56:51.887Z,15.43
2022-11-28T20:00:09.002Z,16.60
2022-11-28T20:02:41.296Z,15.13
2022-11-28T20:05:08.837Z,16.67
2022-11-28T20:07:36.610Z,10.05
2022-11-28T20:10:04.069Z,15.05
2022-11-28T20:12:31.852Z,13.35
2022-11-28T20:14:59.019Z,12.37
2022-11-28T20:17:26.027Z,11.05
2022-11-28T20:19:53.468Z,10.98
2022-11-28T20:22:22.901Z,8.93
2022-11-28T20:24:49.869Z,12.38
2022-11-28T20:27:17.678Z,9.80
2022-11-28T20:29:45.492Z,13.23
2022-11-28T20:32:12.848Z,12.02
2022-11-28T20:34:40.118Z,11.27
2022-11-28T20:37:07.113Z,14.00
2022-11-28T20:39:34.270Z,11.27
2022-11-28T20:42:01.487Z,14.30
2022-11-28T20:44:28.641Z,8.80
2022-11-28T20:47:03.062Z,12.18
2022-11-28T20:49:30.083Z,14.40
2022-11-28T20:52:00.231Z,9.47
2022-11-28T20:54:27.415Z,13.30
2022-11-28T20:57:20.326Z,9.18
2022-11-28T20:59:47.138Z,11.85
2022-11-28T21:02:16.643Z,8.15
2022-11-28T21:04:43.825Z,9.07
2022-11-28T21:07:12.630Z,8.75
2022-11-28T21:09:39.656Z,8.93
2022-11-28T21:12:06.893Z,11.25
2022-11-28T21:14:33.827Z,10.00
2022-11-28T21:17:01.431Z,8.13
2022-11-28T21:19:53.090Z,10.30
2022-11-28T21:22:20.121Z,13.18
2022-11-28T21:24:50.606Z,9.23
2022-11-28T21:27:17.663Z,11.48
2022-11-28T21:29:45.602Z,10.40
2022-11-28T21:32:15.355Z,12.52
2022-11-28T21:34:42.392Z,14.00
2022-11-28T21:37:09.372Z,9.85
2022-11-28T21:39:38.708Z,10.60
2022-11-28T21:42:07.444Z,8.90
2022-11-28T21:44:34.509Z,11.57
2022-11-28T21:47:03.579Z,10.85
2022-11-28T21:49:31.669Z,13.20
2022-11-28T21:51:58.801Z,9.43
2022-11-28T21:54:25.888Z,10.47
2022-11-28T21:56:52.777Z,10.63
2022-11-28T21:59:22.331Z,10.88
2022-11-28T22:01:50.293Z,10.63
2022-11-28T22:04:22.031Z,12.32
2022-11-28T22:06:51.058Z,11.97
2022-11-28T22:09:18.732Z,12.52
2022-11-28T22:11:45.742Z,13.98
2022-11-28T22:14:13.063Z,11.02
2022-11-28T22:16:40.142Z,12.10
2022-11-28T22:19:07.152Z,12.97
2022-11-28T22:21:53.016Z,11.93
2022-11-28T22:24:23.598Z,11.68
2022-11-28T22:26:50.697Z,11.60
2022-11-28T22:29:18.498Z,10.27
2022-11-28T22:31:45.786Z,9.97
2022-11-28T22:34:12.972Z,12.93
2022-11-28T22:36:40.474Z,15.50
2022-11-28T22:39:10.544Z,11.88
2022-11-28T22:41:38.092Z,14.02
2022-11-28T22:44:05.481Z,13.07
2022-11-28T22:46:32.853Z,17.17
2022-11-28T22:49:01.564Z,15.73
2022-11-28T22:51:29.822Z,13.95
2022-11-28T22:53:59.434Z,16.60
2022-11-28T22:56:29.214Z,15.17
2022-11-28T22:58:57.853Z,15.48
2022-11-28T23:01:29.682Z,16.77
2022-11-28T23:03:57.409Z,13.55
2022-11-28T23:06:27.666Z,15.60
2022-11-28T23:08:56.873Z,14.00
2022-11-28T23:12:42.355Z,15.02
2022-11-28T23:15:10.454Z,16.45
2022-11-28T23:17:37.567Z,16.02
2022-11-28T23:24:16.462Z,12.87
2022-11-28T23:26:45.007Z,13.27
2022-11-28T23:29:14.128Z,14.25
2022-11-28T23:31:43.543Z,17.92
2022-11-28T23:34:11.950Z,15.10
2022-11-28T23:36:45.092Z,14.87
2022-11-28T23:39:20.898Z,13.52
2022-11-28T23:41:48.407Z,16.45
2022-11-28T23:44:16.743Z,18.38
2022-11-28T23:46:44.596Z,12.40
2022-11-28T23:49:12.404Z,17.03
2022-11-28T23:51:43.192Z,13.40
2022-11-28T23:54:11.933Z,10.27
2022-11-28T23:56:40.404Z,14.15
2022-11-28T23:59:09.592Z,14.20
